sensor_id;sensor_type;location;lat;lon;timestamp;pressure;altitude;pressure_sealevel;temperature;humidity
6349;BME280;3207;42.648;23.406;2023-01-28T00:01:04;100173.03;;;3.06;68.73
6349;BME280;3207;42.648;23.406;2023-01-28T00:03:31;100171.56;;;2.99;68.77
6349;BME280;3207;42.648;23.406;2023-01-28T00:06:01;100176.88;;;2.96;68.39
6349;BME280;3207;42.648;23.406;2023-01-28T00:08:30;100172.47;;;2.98;68.73
6349;BME280;3207;42.648;23.406;2023-01-28T00:10:58;100182.16;;;2.92;68.36
6349;BME280;3207;42.648;23.406;2023-01-28T00:13:26;100175.19;;;2.94;68.25
6349;BME280;3207;42.648;23.406;2023-01-28T00:15:56;100164.66;;;2.77;68.59
6349;BME280;3207;42.648;23.406;2023-01-28T00:18:23;100172.13;;;2.85;68.29
6349;BME280;3207;42.648;23.406;2023-01-28T00:20:57;100176.38;;;2.64;68.36
6349;BME280;3207;42.648;23.406;2023-01-28T00:23:24;100179.22;;;2.56;69.13
6349;BME280;3207;42.648;23.406;2023-01-28T00:25:53;100177.13;;;2.66;68.86
6349;BME280;3207;42.648;23.406;2023-01-28T00:28:20;100178.75;;;2.69;68.73
6349;BME280;3207;42.648;23.406;2023-01-28T00:30:47;100177.00;;;2.69;69.11
6349;BME280;3207;42.648;23.406;2023-01-28T00:33:13;100179.44;;;2.74;68.79
6349;BME280;3207;42.648;23.406;2023-01-28T00:35:40;100176.06;;;2.72;69.39
6349;BME280;3207;42.648;23.406;2023-01-28T00:38:07;100182.66;;;2.79;69.18
6349;BME280;3207;42.648;23.406;2023-01-28T00:40:34;100176.44;;;2.84;68.95
6349;BME280;3207;42.648;23.406;2023-01-28T00:43:02;100179.94;;;2.83;68.94
6349;BME280;3207;42.648;23.406;2023-01-28T00:45:29;100186.56;;;2.89;68.20
6349;BME280;3207;42.648;23.406;2023-01-28T00:47:55;100189.56;;;2.78;68.42
6349;BME280;3207;42.648;23.406;2023-01-28T00:50:22;100187.19;;;2.74;69.33
6349;BME280;3207;42.648;23.406;2023-01-28T00:52:49;100187.66;;;2.83;68.68
6349;BME280;3207;42.648;23.406;2023-01-28T00:55:16;100193.53;;;2.87;68.86
6349;BME280;3207;42.648;23.406;2023-01-28T00:57:42;100195.16;;;2.89;69.03
6349;BME280;3207;42.648;23.406;2023-01-28T01:00:11;100180.31;;;2.96;69.03
6349;BME280;3207;42.648;23.406;2023-01-28T01:02:38;100189.63;;;2.99;68.89
6349;BME280;3207;42.648;23.406;2023-01-28T01:05:06;100195.94;;;2.91;68.75
6349;BME280;3207;42.648;23.406;2023-01-28T01:07:33;100195.94;;;2.91;68.77
6349;BME280;3207;42.648;23.406;2023-01-28T01:10:07;100194.38;;;2.87;69.11
6349;BME280;3207;42.648;23.406;2023-01-28T01:12:34;100196.31;;;2.82;69.54
6349;BME280;3207;42.648;23.406;2023-01-28T01:15:01;100199.47;;;2.89;69.76
6349;BME280;3207;42.648;23.406;2023-01-28T01:17:30;100198.44;;;2.94;69.61
6349;BME280;3207;42.648;23.406;2023-01-28T01:19:57;100187.31;;;2.92;69.07
6349;BME280;3207;42.648;23.406;2023-01-28T01:22:24;100191.28;;;3.01;69.37
6349;BME280;3207;42.648;23.406;2023-01-28T01:24:51;100192.59;;;2.89;69.14
6349;BME280;3207;42.648;23.406;2023-01-28T01:27:18;100201.97;;;2.92;69.77
6349;BME280;3207;42.648;23.406;2023-01-28T01:29:45;100195.06;;;2.92;68.91
6349;BME280;3207;42.648;23.406;2023-01-28T01:32:12;100142.97;;;2.60;68.87
6349;BME280;3207;42.648;23.406;2023-01-28T01:34:40;100198.53;;;2.91;69.55
6349;BME280;3207;42.648;23.406;2023-01-28T01:37:07;100210.59;;;2.91;69.33
6349;BME280;3207;42.648;23.406;2023-01-28T01:39:34;100196.91;;;2.89;69.88
6349;BME280;3207;42.648;23.406;2023-01-28T01:42:01;100206.63;;;2.82;69.77
6349;BME280;3207;42.648;23.406;2023-01-28T01:44:57;100206.56;;;2.84;70.45
6349;BME280;3207;42.648;23.406;2023-01-28T01:47:30;100204.16;;;2.79;70.20
6349;BME280;3207;42.648;23.406;2023-01-28T01:50:02;100206.84;;;2.76;70.59
6349;BME280;3207;42.648;23.406;2023-01-28T01:52:32;100204.09;;;2.81;70.29
6349;BME280;3207;42.648;23.406;2023-01-28T01:55:04;100210.94;;;2.82;70.62
6349;BME280;3207;42.648;23.406;2023-01-28T01:57:33;100196.66;;;2.73;70.52
6349;BME280;3207;42.648;23.406;2023-01-28T02:00:03;100202.47;;;2.78;70.63
6349;BME280;3207;42.648;23.406;2023-01-28T02:02:36;100202.59;;;2.75;70.55
6349;BME280;3207;42.648;23.406;2023-01-28T02:05:06;100205.69;;;2.85;70.91
6349;BME280;3207;42.648;23.406;2023-01-28T02:07:34;100205.59;;;2.86;70.84
6349;BME280;3207;42.648;23.406;2023-01-28T02:10:01;100208.31;;;2.83;70.54
6349;BME280;3207;42.648;23.406;2023-01-28T02:12:29;100204.16;;;2.79;71.09
6349;BME280;3207;42.648;23.406;2023-01-28T02:15:04;100205.84;;;2.80;71.40
6349;BME280;3207;42.648;23.406;2023-01-28T02:17:32;100209.41;;;2.76;71.41
6349;BME280;3207;42.648;23.406;2023-01-28T02:20:00;100205.94;;;2.77;71.44
6349;BME280;3207;42.648;23.406;2023-01-28T02:23:00;100206.00;;;2.76;71.39
6349;BME280;3207;42.648;23.406;2023-01-28T02:28:51;100208.09;;;2.66;71.94
6349;BME280;3207;42.648;23.406;2023-01-28T02:31:23;100203.13;;;2.62;71.50
6349;BME280;3207;42.648;23.406;2023-01-28T02:33:58;100208.97;;;2.65;71.54
6349;BME280;3207;42.648;23.406;2023-01-28T02:36:29;100214.28;;;2.62;72.51
6349;BME280;3207;42.648;23.406;2023-01-28T02:39:02;100165.22;;;2.40;71.64
6349;BME280;3207;42.648;23.406;2023-01-28T02:41:34;100202.16;;;2.64;72.20
6349;BME280;3207;42.648;23.406;2023-01-28T02:44:04;100201.19;;;2.67;71.59
6349;BME280;3207;42.648;23.406;2023-01-28T02:46:36;100211.31;;;2.73;71.40
6349;BME280;3207;42.648;23.406;2023-01-28T02:49:23;100203.59;;;2.71;71.87
6349;BME280;3207;42.648;23.406;2023-01-28T02:54:50;100214.66;;;2.75;71.64
6349;BME280;3207;42.648;23.406;2023-01-28T02:57:30;100205.06;;;2.55;71.68
6349;BME280;3207;42.648;23.406;2023-01-28T03:00:08;100194.47;;;2.63;71.87
6349;BME280;3207;42.648;23.406;2023-01-28T03:02:40;100203.81;;;2.65;71.52
6349;BME280;3207;42.648;23.406;2023-01-28T03:05:16;100206.97;;;2.73;71.77
6349;BME280;3207;42.648;23.406;2023-01-28T03:07:45;100202.47;;;2.78;71.66
6349;BME280;3207;42.648;23.406;2023-01-28T03:10:15;100194.13;;;2.72;71.00
6349;BME280;3207;42.648;23.406;2023-01-28T03:12:43;100191.94;;;2.61;71.38
6349;BME280;3207;42.648;23.406;2023-01-28T03:15:34;100204.84;;;2.61;71.27
6349;BME280;3207;42.648;23.406;2023-01-28T03:18:24;100198.78;;;2.62;71.20
6349;BME280;3207;42.648;23.406;2023-01-28T03:21:11;100201.97;;;2.69;71.45
6349;BME280;3207;42.648;23.406;2023-01-28T03:23:58;100205.28;;;2.72;71.53
6349;BME280;3207;42.648;23.406;2023-01-28T03:26:48;100210.47;;;2.72;71.73
6349;BME280;3207;42.648;23.406;2023-01-28T03:29:36;100196.28;;;2.61;71.39
6349;BME280;3207;42.648;23.406;2023-01-28T03:32:24;100211.31;;;2.73;71.34
6349;BME280;3207;42.648;23.406;2023-01-28T03:35:09;100209.38;;;2.78;71.01
6349;BME280;3207;42.648;23.406;2023-01-28T03:37:56;100213.69;;;2.77;71.04
6349;BME280;3207;42.648;23.406;2023-01-28T03:40:24;100208.47;;;2.79;70.96
6349;BME280;3207;42.648;23.406;2023-01-28T03:42:51;100206.97;;;2.73;71.10
6349;BME280;3207;42.648;23.406;2023-01-28T03:45:18;100218.00;;;2.77;70.89
6349;BME280;3207;42.648;23.406;2023-01-28T03:47:47;100211.91;;;2.79;70.67
6349;BME280;3207;42.648;23.406;2023-01-28T03:50:14;100220.78;;;2.72;70.28
6349;BME280;3207;42.648;23.406;2023-01-28T03:52:40;100218.75;;;2.80;69.87
6349;BME280;3207;42.648;23.406;2023-01-28T03:55:08;100218.66;;;2.83;70.39
6349;BME280;3207;42.648;23.406;2023-01-28T03:57:38;100211.09;;;2.77;69.80
6349;BME280;3207;42.648;23.406;2023-01-28T04:00:07;100217.25;;;2.75;70.52
6349;BME280;3207;42.648;23.406;2023-01-28T04:02:35;100224.25;;;2.71;70.95
6349;BME280;3207;42.648;23.406;2023-01-28T04:05:07;100176.22;;;2.44;70.73
6349;BME280;3207;42.648;23.406;2023-01-28T04:07:37;100224.16;;;2.74;70.50
6349;BME280;3207;42.648;23.406;2023-01-28T04:10:06;100222.56;;;2.70;70.70
6349;BME280;3207;42.648;23.406;2023-01-28T04:12:34;100222.63;;;2.69;71.04
6349;BME280;3207;42.648;23.406;2023-01-28T04:15:04;100180.00;;;2.35;71.03
6349;BME280;3207;42.648;23.406;2023-01-28T04:17:42;100215.72;;;2.69;70.27
6349;BME280;3207;42.648;23.406;2023-01-28T04:20:12;100227.44;;;2.78;69.95
6349;BME280;3207;42.648;23.406;2023-01-28T04:22:40;100229.19;;;2.77;70.45
6349;BME280;3207;42.648;23.406;2023-01-28T04:25:07;100232.38;;;2.84;69.79
6349;BME280;3207;42.648;23.406;2023-01-28T04:27:34;100231.75;;;2.77;70.50
6349;BME280;3207;42.648;23.406;2023-01-28T04:30:01;100228.97;;;2.83;70.88
6349;BME280;3207;42.648;23.406;2023-01-28T04:32:28;100228.72;;;2.89;70.31
6349;BME280;3207;42.648;23.406;2023-01-28T04:34:55;100240.00;;;2.87;69.92
6349;BME280;3207;42.648;23.406;2023-01-28T04:37:23;100238.75;;;2.97;70.32
6349;BME280;3207;42.648;23.406;2023-01-28T04:39:50;100244.59;;;3.02;69.36
6349;BME280;3207;42.648;23.406;2023-01-28T04:42:16;100245.78;;;2.93;69.72
6349;BME280;3207;42.648;23.406;2023-01-28T04:44:43;100254.81;;;3.05;69.42
6349;BME280;3207;42.648;23.406;2023-01-28T04:47:10;100259.94;;;3.07;69.21
6349;BME280;3207;42.648;23.406;2023-01-28T04:49:37;100253.03;;;3.07;70.04
6349;BME280;3207;42.648;23.406;2023-01-28T04:52:04;100251.44;;;3.03;69.82
6349;BME280;3207;42.648;23.406;2023-01-28T04:54:32;100253.69;;;3.12;69.31
6349;BME280;3207;42.648;23.406;2023-01-28T04:56:59;100250.34;;;3.09;69.45
6349;BME280;3207;42.648;23.406;2023-01-28T04:59:26;100266.44;;;3.17;69.32
6349;BME280;3207;42.648;23.406;2023-01-28T05:01:53;100253.69;;;3.12;68.91
6349;BME280;3207;42.648;23.406;2023-01-28T05:04:19;100254.09;;;3.02;68.98
6349;BME280;3207;42.648;23.406;2023-01-28T05:06:46;100263.25;;;3.09;69.55
6349;BME280;3207;42.648;23.406;2023-01-28T05:09:13;100260.69;;;3.09;69.22
6349;BME280;3207;42.648;23.406;2023-01-28T05:11:41;100260.47;;;3.15;69.57
6349;BME280;3207;42.648;23.406;2023-01-28T05:14:08;100271.00;;;3.09;69.52
6349;BME280;3207;42.648;23.406;2023-01-28T05:16:35;100252.19;;;3.07;69.13
6349;BME280;3207;42.648;23.406;2023-01-28T05:19:02;100247.34;;;2.98;69.24
6349;BME280;3207;42.648;23.406;2023-01-28T05:21:29;100264.09;;;3.09;69.24
6349;BME280;3207;42.648;23.406;2023-01-28T05:23:56;100269.22;;;3.11;68.95
6349;BME280;3207;42.648;23.406;2023-01-28T05:26:22;100263.16;;;3.12;68.73
6349;BME280;3207;42.648;23.406;2023-01-28T05:28:51;100264.31;;;3.05;68.57
6349;BME280;3207;42.648;23.406;2023-01-28T05:31:17;100274.84;;;2.99;69.40
6349;BME280;3207;42.648;23.406;2023-01-28T05:33:44;100272.09;;;3.03;69.33
6349;BME280;3207;42.648;23.406;2023-01-28T05:36:11;100269.81;;;2.96;69.09
6349;BME280;3207;42.648;23.406;2023-01-28T05:38:38;100276.44;;;3.03;69.47
6349;BME280;3207;42.648;23.406;2023-01-28T05:41:05;100271.41;;;2.98;69.20
6349;BME280;3207;42.648;23.406;2023-01-28T05:43:31;100278.91;;;3.06;68.94
6349;BME280;3207;42.648;23.406;2023-01-28T05:46:00;100277.88;;;3.10;68.70
6349;BME280;3207;42.648;23.406;2023-01-28T05:48:26;100280.75;;;3.02;69.66
6349;BME280;3207;42.648;23.406;2023-01-28T05:50:53;100275.63;;;3.01;69.65
6349;BME280;3207;42.648;23.406;2023-01-28T05:53:20;100275.41;;;3.07;69.18
6349;BME280;3207;42.648;23.406;2023-01-28T05:55:48;100276.53;;;3.00;69.19
6349;BME280;3207;42.648;23.406;2023-01-28T05:58:15;100261.34;;;2.92;69.75
6349;BME280;3207;42.648;23.406;2023-01-28T06:00:42;100295.53;;;3.20;69.18
6349;BME280;3207;42.648;23.406;2023-01-28T06:03:10;100267.78;;;3.04;69.90
6349;BME280;3207;42.648;23.406;2023-01-28T06:05:38;100300.44;;;3.28;69.96
6349;BME280;3207;42.648;23.406;2023-01-28T06:08:04;100309.84;;;3.29;70.29
6349;BME280;3207;42.648;23.406;2023-01-28T06:10:31;100302.78;;;3.34;70.36
6349;BME280;3207;42.648;23.406;2023-01-28T06:12:58;100288.47;;;3.25;70.57
6349;BME280;3207;42.648;23.406;2023-01-28T06:15:26;100306.94;;;3.38;70.10
6349;BME280;3207;42.648;23.406;2023-01-28T06:17:53;100321.41;;;3.42;70.12
6349;BME280;3207;42.648;23.406;2023-01-28T06:20:21;100319.66;;;3.43;70.37
6349;BME280;3207;42.648;23.406;2023-01-28T06:22:49;100315.28;;;3.45;70.31
6349;BME280;3207;42.648;23.406;2023-01-28T06:25:16;100311.97;;;3.41;69.99
6349;BME280;3207;42.648;23.406;2023-01-28T06:27:43;100313.59;;;3.44;70.20
6349;BME280;3207;42.648;23.406;2023-01-28T06:30:10;100324.53;;;3.50;69.55
6349;BME280;3207;42.648;23.406;2023-01-28T06:32:37;100331.25;;;3.54;69.60
6349;BME280;3207;42.648;23.406;2023-01-28T06:35:04;100322.72;;;3.52;69.27
6349;BME280;3207;42.648;23.406;2023-01-28T06:37:33;100323.75;;;3.48;69.59
6349;BME280;3207;42.648;23.406;2023-01-28T06:40:00;100325.31;;;3.52;69.17
6349;BME280;3207;42.648;23.406;2023-01-28T06:42:27;100331.16;;;3.57;69.22
6349;BME280;3207;42.648;23.406;2023-01-28T06:44:54;100340.44;;;3.61;69.00
6349;BME280;3207;42.648;23.406;2023-01-28T06:47:21;100331.16;;;3.57;69.00
6349;BME280;3207;42.648;23.406;2023-01-28T06:49:47;100346.59;;;3.59;69.28
6349;BME280;3207;42.648;23.406;2023-01-28T06:52:14;100345.72;;;3.60;69.11
6349;BME280;3207;42.648;23.406;2023-01-28T06:54:42;100349.91;;;3.62;68.64
6349;BME280;3207;42.648;23.406;2023-01-28T06:57:09;100348.09;;;3.64;68.72
6349;BME280;3207;42.648;23.406;2023-01-28T06:59:36;100348.94;;;3.65;67.75
6349;BME280;3207;42.648;23.406;2023-01-28T07:02:03;100358.44;;;3.64;67.70
6349;BME280;3207;42.648;23.406;2023-01-28T07:04:30;100360.13;;;3.65;68.11
6349;BME280;3207;42.648;23.406;2023-01-28T07:06:57;100355.69;;;3.69;68.52
6349;BME280;3207;42.648;23.406;2023-01-28T07:09:24;100357.19;;;3.75;68.38
6349;BME280;3207;42.648;23.406;2023-01-28T07:11:52;100366.63;;;3.76;68.79
6349;BME280;3207;42.648;23.406;2023-01-28T07:14:19;100365.63;;;3.80;68.84
6349;BME280;3207;42.648;23.406;2023-01-28T07:16:45;100374.91;;;3.84;68.62
6349;BME280;3207;42.648;23.406;2023-01-28T07:19:12;100291.66;;;3.32;68.77
6349;BME280;3207;42.648;23.406;2023-01-28T07:21:39;100346.31;;;3.66;69.38
6349;BME280;3207;42.648;23.406;2023-01-28T07:24:06;100378.28;;;3.86;69.52
6349;BME280;3207;42.648;23.406;2023-01-28T07:26:33;100379.84;;;3.90;69.24
6349;BME280;3207;42.648;23.406;2023-01-28T07:29:01;100389.94;;;3.96;69.22
6349;BME280;3207;42.648;23.406;2023-01-28T07:31:28;100388.88;;;4.01;69.35
6349;BME280;3207;42.648;23.406;2023-01-28T07:33:54;100393.06;;;4.04;69.26
6349;BME280;3207;42.648;23.406;2023-01-28T07:36:21;100377.03;;;3.96;68.83
6349;BME280;3207;42.648;23.406;2023-01-28T07:38:48;100400.66;;;4.09;69.56
6349;BME280;3207;42.648;23.406;2023-01-28T07:41:15;100352.69;;;3.80;69.31
6349;BME280;3207;42.648;23.406;2023-01-28T07:43:41;100404.19;;;4.06;69.59
6349;BME280;3207;42.648;23.406;2023-01-28T07:46:10;100408.09;;;4.16;69.14
6349;BME280;3207;42.648;23.406;2023-01-28T07:48:37;100414.19;;;4.15;69.49
6349;BME280;3207;42.648;23.406;2023-01-28T07:51:04;100411.47;;;4.18;69.89
6349;BME280;3207;42.648;23.406;2023-01-28T07:53:31;100408.59;;;4.04;69.23
6349;BME280;3207;42.648;23.406;2023-01-28T07:55:58;100414.44;;;4.09;68.58
6349;BME280;3207;42.648;23.406;2023-01-28T07:58:25;100421.28;;;4.10;68.57
6349;BME280;3207;42.648;23.406;2023-01-28T08:00:55;100410.84;;;4.13;68.07
6349;BME280;3207;42.648;23.406;2023-01-28T08:03:25;100429.22;;;4.27;68.13
6349;BME280;3207;42.648;23.406;2023-01-28T08:05:53;100419.41;;;4.35;67.88
6349;BME280;3207;42.648;23.406;2023-01-28T08:08:21;100425.97;;;4.44;67.73
6349;BME280;3207;42.648;23.406;2023-01-28T08:10:48;100401.28;;;4.35;67.43
6349;BME280;3207;42.648;23.406;2023-01-28T08:13:16;100428.13;;;4.55;67.24
6349;BME280;3207;42.648;23.406;2023-01-28T08:15:43;100427.34;;;4.53;65.66
6349;BME280;3207;42.648;23.406;2023-01-28T08:18:12;100372.03;;;4.13;64.85
6349;BME280;3207;42.648;23.406;2023-01-28T08:20:41;100432.59;;;4.29;64.14
6349;BME280;3207;42.648;23.406;2023-01-28T08:23:11;100418.81;;;4.29;62.09
6349;BME280;3207;42.648;23.406;2023-01-28T08:25:38;100423.66;;;4.36;62.03
6349;BME280;3207;42.648;23.406;2023-01-28T08:28:05;100425.72;;;4.28;62.20
6349;BME280;3207;42.648;23.406;2023-01-28T08:30:33;100432.53;;;4.31;62.66
6349;BME280;3207;42.648;23.406;2023-01-28T08:33:02;100427.16;;;4.35;61.57
6349;BME280;3207;42.648;23.406;2023-01-28T08:35:29;100430.53;;;4.37;61.90
6349;BME280;3207;42.648;23.406;2023-01-28T08:38:00;100438.19;;;4.40;62.47
6349;BME280;3207;42.648;23.406;2023-01-28T08:40:28;100439.19;;;4.36;61.19
6349;BME280;3207;42.648;23.406;2023-01-28T08:42:55;100444.94;;;4.45;60.59
6349;BME280;3207;42.648;23.406;2023-01-28T08:45:23;100447.50;;;4.45;60.80
6349;BME280;3207;42.648;23.406;2023-01-28T08:47:52;100439.50;;;4.51;60.87
6349;BME280;3207;42.648;23.406;2023-01-28T08:50:21;100415.25;;;4.31;59.90
6349;BME280;3207;42.648;23.406;2023-01-28T08:52:52;100447.84;;;4.57;60.42
6349;BME280;3207;42.648;23.406;2023-01-28T08:55:21;100447.84;;;4.35;59.81
6349;BME280;3207;42.648;23.406;2023-01-28T08:57:48;100449.00;;;4.50;59.24
6349;BME280;3207;42.648;23.406;2023-01-28T09:00:17;100453.44;;;4.47;59.23
6349;BME280;3207;42.648;23.406;2023-01-28T09:02:44;100421.09;;;4.15;59.36
6349;BME280;3207;42.648;23.406;2023-01-28T09:05:11;100462.19;;;4.44;59.70
6349;BME280;3207;42.648;23.406;2023-01-28T09:07:38;100464.34;;;4.55;59.27
6349;BME280;3207;42.648;23.406;2023-01-28T09:10:05;100444.13;;;4.43;58.77
6349;BME280;3207;42.648;23.406;2023-01-28T09:12:34;100468.69;;;4.54;59.51
6349;BME280;3207;42.648;23.406;2023-01-28T09:15:02;100467.06;;;4.52;59.72
6349;BME280;3207;42.648;23.406;2023-01-28T09:17:29;100456.66;;;4.53;59.15
6349;BME280;3207;42.648;23.406;2023-01-28T09:19:55;100464.63;;;4.69;59.13
6349;BME280;3207;42.648;23.406;2023-01-28T09:22:22;100459.44;;;4.69;59.12
6349;BME280;3207;42.648;23.406;2023-01-28T09:24:51;100477.00;;;4.83;59.09
6349;BME280;3207;42.648;23.406;2023-01-28T09:27:17;100478.63;;;4.85;58.27
6349;BME280;3207;42.648;23.406;2023-01-28T09:29:46;100480.94;;;4.71;58.77
6349;BME280;3207;42.648;23.406;2023-01-28T09:32:12;100480.03;;;4.72;58.05
6349;BME280;3207;42.648;23.406;2023-01-28T09:34:39;100453.44;;;4.47;58.77
6349;BME280;3207;42.648;23.406;2023-01-28T09:37:06;100473.78;;;4.56;58.69
6349;BME280;3207;42.648;23.406;2023-01-28T09:39:33;100459.66;;;4.43;59.08
6349;BME280;3207;42.648;23.406;2023-01-28T09:42:17;100489.19;;;4.59;59.36
6349;BME280;3207;42.648;23.406;2023-01-28T09:44:56;100479.81;;;4.34;59.52
6349;BME280;3207;42.648;23.406;2023-01-28T09:47:31;100487.25;;;4.44;59.86
6349;BME280;3207;42.648;23.406;2023-01-28T09:50:02;100485.59;;;4.41;60.00
6349;BME280;3207;42.648;23.406;2023-01-28T09:52:34;100485.41;;;4.46;59.58
6349;BME280;3207;42.648;23.406;2023-01-28T09:55:03;100484.66;;;4.44;60.04
6349;BME280;3207;42.648;23.406;2023-01-28T09:57:36;100485.53;;;4.43;60.16
6349;BME280;3207;42.648;23.406;2023-01-28T10:00:12;100482.19;;;4.40;60.19
6349;BME280;3207;42.648;23.406;2023-01-28T10:02:52;100491.75;;;4.38;60.43
6349;BME280;3207;42.648;23.406;2023-01-28T10:05:26;100484.19;;;4.34;60.44
6349;BME280;3207;42.648;23.406;2023-01-28T10:08:03;100487.88;;;4.27;60.70
6349;BME280;3207;42.648;23.406;2023-01-28T10:10:37;100491.31;;;4.27;60.95
6349;BME280;3207;42.648;23.406;2023-01-28T10:13:19;100489.25;;;4.35;60.99
6349;BME280;3207;42.648;23.406;2023-01-28T10:16:02;100484.75;;;4.40;60.84
6349;BME280;3207;42.648;23.406;2023-01-28T10:18:34;100487.94;;;4.47;60.72
6349;BME280;3207;42.648;23.406;2023-01-28T10:21:11;100491.63;;;4.41;60.71
6349;BME280;3207;42.648;23.406;2023-01-28T10:23:56;100489.47;;;4.53;60.23
6349;BME280;3207;42.648;23.406;2023-01-28T10:26:30;100492.69;;;4.58;60.23
6349;BME280;3207;42.648;23.406;2023-01-28T10:29:03;100490.41;;;4.50;60.45
6349;BME280;3207;42.648;23.406;2023-01-28T10:31:38;100492.94;;;4.52;60.84
6349;BME280;3207;42.648;23.406;2023-01-28T10:34:08;100487.50;;;4.58;60.90
6349;BME280;3207;42.648;23.406;2023-01-28T10:36:36;100489.09;;;4.62;61.09
6349;BME280;3207;42.648;23.406;2023-01-28T10:39:03;100464.09;;;4.61;61.19
6349;BME280;3207;42.648;23.406;2023-01-28T10:41:31;100482.19;;;4.83;60.70
6349;BME280;3207;42.648;23.406;2023-01-28T10:43:58;100457.34;;;4.77;60.58
6349;BME280;3207;42.648;23.406;2023-01-28T10:46:28;100489.84;;;5.06;60.20
6349;BME280;3207;42.648;23.406;2023-01-28T10:49:02;100478.50;;;5.08;60.30
6349;BME280;3207;42.648;23.406;2023-01-28T10:51:34;100480.03;;;5.12;60.72
6349;BME280;3207;42.648;23.406;2023-01-28T10:54:02;100478.75;;;5.23;61.19
6349;BME280;3207;42.648;23.406;2023-01-28T10:56:31;100472.31;;;5.31;61.34
6349;BME280;3207;42.648;23.406;2023-01-28T10:59:01;100480.69;;;5.38;61.25
6349;BME280;3207;42.648;23.406;2023-01-28T11:01:40;100469.47;;;5.37;61.52
6349;BME280;3207;42.648;23.406;2023-01-28T11:04:16;100468.28;;;5.44;60.70
6349;BME280;3207;42.648;23.406;2023-01-28T11:06:52;100476.50;;;5.54;60.32
6349;BME280;3207;42.648;23.406;2023-01-28T11:09:20;100471.66;;;5.65;60.50
6349;BME280;3207;42.648;23.406;2023-01-28T11:11:47;100471.31;;;5.73;60.50
6349;BME280;3207;42.648;23.406;2023-01-28T11:14:19;100478.91;;;5.77;59.97
6349;BME280;3207;42.648;23.406;2023-01-28T11:16:47;100477.50;;;5.70;59.16
6349;BME280;3207;42.648;23.406;2023-01-28T11:19:17;100474.00;;;5.71;59.43
6349;BME280;3207;42.648;23.406;2023-01-28T11:21:48;100474.00;;;5.71;59.34
6349;BME280;3207;42.648;23.406;2023-01-28T11:24:20;100476.44;;;5.74;59.28
6349;BME280;3207;42.648;23.406;2023-01-28T11:26:50;100480.84;;;5.72;59.11
6349;BME280;3207;42.648;23.406;2023-01-28T11:29:21;100476.78;;;5.67;58.65
6349;BME280;3207;42.648;23.406;2023-01-28T11:31:49;100461.28;;;5.65;58.63
6349;BME280;3207;42.648;23.406;2023-01-28T11:34:19;100471.41;;;5.71;58.74
6349;BME280;3207;42.648;23.406;2023-01-28T11:36:50;100472.03;;;5.76;59.08
6349;BME280;3207;42.648;23.406;2023-01-28T11:39:19;100470.81;;;5.65;59.01
6349;BME280;3207;42.648;23.406;2023-01-28T11:41:46;100469.13;;;5.64;58.64
6349;BME280;3207;42.648;23.406;2023-01-28T11:44:16;100474.97;;;5.69;59.00
6349;BME280;3207;42.648;23.406;2023-01-28T11:47:03;100473.22;;;5.69;59.17
6349;BME280;3207;42.648;23.406;2023-01-28T11:49:42;100468.22;;;5.65;59.10
6349;BME280;3207;42.648;23.406;2023-01-28T11:52:16;100438.78;;;5.47;58.67
6349;BME280;3207;42.648;23.406;2023-01-28T11:54:56;100402.56;;;5.27;58.94
6349;BME280;3207;42.648;23.406;2023-01-28T11:57:27;100460.25;;;5.69;59.17
6349;BME280;3207;42.648;23.406;2023-01-28T12:00:12;100458.56;;;5.68;58.78
6349;BME280;3207;42.648;23.406;2023-01-28T12:02:50;100464.38;;;5.73;58.59
6349;BME280;3207;42.648;23.406;2023-01-28T12:05:40;100461.03;;;5.71;58.50
6349;BME280;3207;42.648;23.406;2023-01-28T12:08:13;100459.66;;;5.63;59.19
6349;BME280;3207;42.648;23.406;2023-01-28T12:10:56;100455.75;;;5.54;59.01
6349;BME280;3207;42.648;23.406;2023-01-28T12:13:40;100454.22;;;5.50;59.14
6349;BME280;3207;42.648;23.406;2023-01-28T12:16:17;100451.25;;;5.39;60.10
6349;BME280;3207;42.648;23.406;2023-01-28T12:19:13;100448.44;;;5.43;59.78
6349;BME280;3207;42.648;23.406;2023-01-28T12:22:07;100450.41;;;5.38;59.90
6349;BME280;3207;42.648;23.406;2023-01-28T12:24:50;100449.16;;;5.47;59.64
6349;BME280;3207;42.648;23.406;2023-01-28T12:27:29;100439.63;;;5.47;59.81
6349;BME280;3207;42.648;23.406;2023-01-28T12:30:05;100441.16;;;5.33;60.42
6349;BME280;3207;42.648;23.406;2023-01-28T12:32:45;100446.06;;;5.39;60.53
6349;BME280;3207;42.648;23.406;2023-01-28T12:35:22;100440.19;;;5.35;60.62
6349;BME280;3207;42.648;23.406;2023-01-28T12:38:07;100445.31;;;5.37;61.02
6349;BME280;3207;42.648;23.406;2023-01-28T12:40:46;100445.91;;;5.42;60.83
6349;BME280;3207;42.648;23.406;2023-01-28T12:43:18;100409.84;;;5.19;61.32
6349;BME280;3207;42.648;23.406;2023-01-28T12:45:52;100423.06;;;5.31;61.43
6349;BME280;3207;42.648;23.406;2023-01-28T12:48:25;100355.66;;;4.94;61.03
6349;BME280;3207;42.648;23.406;2023-01-28T12:50:57;100448.03;;;5.52;61.05
6349;BME280;3207;42.648;23.406;2023-01-28T12:53:35;100425.53;;;5.34;61.35
6349;BME280;3207;42.648;23.406;2023-01-28T12:56:07;100455.69;;;5.56;60.65
6349;BME280;3207;42.648;23.406;2023-01-28T12:58:38;100459.25;;;5.53;60.95
6349;BME280;3207;42.648;23.406;2023-01-28T13:01:09;100449.94;;;5.49;60.69
6349;BME280;3207;42.648;23.406;2023-01-28T13:03:40;100460.50;;;5.44;61.07
6349;BME280;3207;42.648;23.406;2023-01-28T13:06:11;100433.50;;;5.30;60.86
6349;BME280;3207;42.648;23.406;2023-01-28T13:08:40;100449.41;;;5.41;61.13
6349;BME280;3207;42.648;23.406;2023-01-28T13:11:12;100456.16;;;5.45;60.62
6349;BME280;3207;42.648;23.406;2023-01-28T13:13:41;100453.91;;;5.37;61.11
6349;BME280;3207;42.648;23.406;2023-01-28T13:16:11;100443.25;;;5.25;61.53
6349;BME280;3207;42.648;23.406;2023-01-28T13:18:43;100459.94;;;5.38;60.90
6349;BME280;3207;42.648;23.406;2023-01-28T13:21:16;100438.34;;;5.19;61.34
6349;BME280;3207;42.648;23.406;2023-01-28T13:24:18;100449.59;;;5.18;61.51
6349;BME280;3207;42.648;23.406;2023-01-28T13:26:47;100459.97;;;5.18;61.74
6349;BME280;3207;42.648;23.406;2023-01-28T13:29:29;100463.59;;;5.13;61.55
6349;BME280;3207;42.648;23.406;2023-01-28T13:31:58;100461.50;;;5.22;61.68
6349;BME280;3207;42.648;23.406;2023-01-28T13:34:29;100467.19;;;5.30;61.51